sensor_id;sensor_type;location;lat;lon;timestamp;temperature;humidity
70593;DHT22;58294;42.988;20.338;2022-07-10T00:00:39;435.20;1971.20
70593;DHT22;58294;42.988;20.338;2022-07-10T00:03:06;435.20;1971.20
70593;DHT22;58294;42.988;20.338;2022-07-10T00:05:32;435.20;1996.80
70593;DHT22;58294;42.988;20.338;2022-07-10T00:08:00;435.20;1971.20
70593;DHT22;58294;42.988;20.338;2022-07-10T00:10:26;435.20;1996.80
70593;DHT22;58294;42.988;20.338;2022-07-10T00:12:54;435.20;1996.80
70593;DHT22;58294;42.988;20.338;2022-07-10T00:15:20;435.20;1996.80
70593;DHT22;58294;42.988;20.338;2022-07-10T00:17:47;435.20;1996.80
70593;DHT22;58294;42.988;20.338;2022-07-10T00:20:14;435.20;1996.80
70593;DHT22;58294;42.988;20.338;2022-07-10T00:22:40;435.20;1996.80
70593;DHT22;58294;42.988;20.338;2022-07-10T00:25:07;435.20;1996.80
70593;DHT22;58294;42.988;20.338;2022-07-10T00:27:33;435.20;1996.80
70593;DHT22;58294;42.988;20.338;2022-07-10T00:29:59;435.20;1996.80
70593;DHT22;58294;42.988;20.338;2022-07-10T00:32:25;435.20;1996.80
70593;DHT22;58294;42.988;20.338;2022-07-10T00:34:51;435.20;1996.80
70593;DHT22;58294;42.988;20.338;2022-07-10T00:37:17;435.20;1971.20
70593;DHT22;58294;42.988;20.338;2022-07-10T00:39:43;435.20;1971.20
70593;DHT22;58294;42.988;20.338;2022-07-10T00:42:10;410.50;1996.80
70593;DHT22;58294;42.988;20.338;2022-07-10T00:44:37;410.50;1996.80
70593;DHT22;58294;42.988;20.338;2022-07-10T00:47:04;410.50;1996.80
70593;DHT22;58294;42.988;20.338;2022-07-10T00:49:31;410.50;1996.80
70593;DHT22;58294;42.988;20.338;2022-07-10T00:52:00;410.50;1996.80
70593;DHT22;58294;42.988;20.338;2022-07-10T01:25:03;384.70;1996.80
70593;DHT22;58294;42.988;20.338;2022-07-10T01:27:29;410.10;2073.60
70593;DHT22;58294;42.988;20.338;2022-07-10T01:29:55;410.10;2073.60
70593;DHT22;58294;42.988;20.338;2022-07-10T01:32:21;410.00;2048.00
70593;DHT22;58294;42.988;20.338;2022-07-10T01:34:47;410.00;2048.00
70593;DHT22;58294;42.988;20.338;2022-07-10T01:37:13;410.00;2048.00
70593;DHT22;58294;42.988;20.338;2022-07-10T01:39:39;410.00;2048.00
70593;DHT22;58294;42.988;20.338;2022-07-10T01:42:05;410.10;2048.00
70593;DHT22;58294;42.988;20.338;2022-07-10T01:44:30;410.10;2048.00
70593;DHT22;58294;42.988;20.338;2022-07-10T01:46:56;410.10;2048.00
70593;DHT22;58294;42.988;20.338;2022-07-10T01:49:22;410.10;2048.00
70593;DHT22;58294;42.988;20.338;2022-07-10T01:51:48;410.10;2048.00
70593;DHT22;58294;42.988;20.338;2022-07-10T01:54:14;410.20;2048.00
70593;DHT22;58294;42.988;20.338;2022-07-10T01:56:40;410.20;2048.00
70593;DHT22;58294;42.988;20.338;2022-07-10T01:59:05;410.20;2048.00
70593;DHT22;58294;42.988;20.338;2022-07-10T02:01:31;410.20;2048.00
70593;DHT22;58294;42.988;20.338;2022-07-10T02:03:57;410.20;2022.40
70593;DHT22;58294;42.988;20.338;2022-07-10T02:06:42;410.20;2022.40
70593;DHT22;58294;42.988;20.338;2022-07-10T02:09:08;410.20;2022.40
70593;DHT22;58294;42.988;20.338;2022-07-10T02:11:33;410.20;2022.40
70593;DHT22;58294;42.988;20.338;2022-07-10T02:13:59;410.20;2022.40
70593;DHT22;58294;42.988;20.338;2022-07-10T02:16:25;410.20;2022.40
70593;DHT22;58294;42.988;20.338;2022-07-10T02:18:51;410.20;2022.40
70593;DHT22;58294;42.988;20.338;2022-07-10T02:21:17;410.10;2022.40
70593;DHT22;58294;42.988;20.338;2022-07-10T02:23:42;410.10;2022.40
70593;DHT22;58294;42.988;20.338;2022-07-10T02:26:08;410.10;2022.40
70593;DHT22;58294;42.988;20.338;2022-07-10T02:28:34;410.10;2022.40
70593;DHT22;58294;42.988;20.338;2022-07-10T02:31:00;410.10;2022.40
70593;DHT22;58294;42.988;20.338;2022-07-10T02:33:26;410.10;2022.40
70593;DHT22;58294;42.988;20.338;2022-07-10T02:35:51;410.10;2022.40
70593;DHT22;58294;42.988;20.338;2022-07-10T02:38:17;410.10;2022.40
70593;DHT22;58294;42.988;20.338;2022-07-10T02:40:43;410.10;2048.00
70593;DHT22;58294;42.988;20.338;2022-07-10T02:43:09;410.10;2022.40
70593;DHT22;58294;42.988;20.338;2022-07-10T02:45:35;410.10;2022.40
70593;DHT22;58294;42.988;20.338;2022-07-10T02:48:01;410.10;2022.40
70593;DHT22;58294;42.988;20.338;2022-07-10T02:50:26;410.10;2048.00
70593;DHT22;58294;42.988;20.338;2022-07-10T02:52:52;410.10;2048.00
70593;DHT22;58294;42.988;20.338;2022-07-10T02:55:18;410.10;2022.40
70593;DHT22;58294;42.988;20.338;2022-07-10T02:57:44;410.00;2022.40
70593;DHT22;58294;42.988;20.338;2022-07-10T03:00:10;410.00;2022.40
70593;DHT22;58294;42.988;20.338;2022-07-10T03:02:37;410.00;2022.40
70593;DHT22;58294;42.988;20.338;2022-07-10T03:05:02;410.00;2022.40
70593;DHT22;58294;42.988;20.338;2022-07-10T03:07:28;410.00;2022.40
70593;DHT22;58294;42.988;20.338;2022-07-10T03:09:54;410.00;2048.00
70593;DHT22;58294;42.988;20.338;2022-07-10T03:12:20;410.00;2048.00
70593;DHT22;58294;42.988;20.338;2022-07-10T03:14:46;410.00;2048.00
70593;DHT22;58294;42.988;20.338;2022-07-10T03:17:12;410.00;2048.00
70593;DHT22;58294;42.988;20.338;2022-07-10T03:19:38;410.00;2048.00
70593;DHT22;58294;42.988;20.338;2022-07-10T03:22:04;410.10;2048.00
70593;DHT22;58294;42.988;20.338;2022-07-10T03:24:29;410.10;2048.00
70593;DHT22;58294;42.988;20.338;2022-07-10T03:26:55;410.10;2048.00
70593;DHT22;58294;42.988;20.338;2022-07-10T03:29:21;410.10;2048.00
70593;DHT22;58294;42.988;20.338;2022-07-10T03:31:47;410.10;2048.00
70593;DHT22;58294;42.988;20.338;2022-07-10T03:34:13;410.10;2048.00
70593;DHT22;58294;42.988;20.338;2022-07-10T03:36:38;410.10;2048.00
70593;DHT22;58294;42.988;20.338;2022-07-10T03:39:05;410.10;2048.00
70593;DHT22;58294;42.988;20.338;2022-07-10T03:41:30;410.10;2048.00
70593;DHT22;58294;42.988;20.338;2022-07-10T03:43:56;410.20;2048.00
70593;DHT22;58294;42.988;20.338;2022-07-10T03:46:22;410.20;2048.00
70593;DHT22;58294;42.988;20.338;2022-07-10T03:48:48;410.20;2048.00
70593;DHT22;58294;42.988;20.338;2022-07-10T03:51:14;410.20;2073.60
70593;DHT22;58294;42.988;20.338;2022-07-10T03:53:39;410.20;2048.00
70593;DHT22;58294;42.988;20.338;2022-07-10T03:56:05;410.30;2022.40
70593;DHT22;58294;42.988;20.338;2022-07-10T03:58:31;410.20;2073.60
70593;DHT22;58294;42.988;20.338;2022-07-10T04:00:57;410.10;2073.60
70593;DHT22;58294;42.988;20.338;2022-07-10T04:03:23;410.20;2073.60
70593;DHT22;58294;42.988;20.338;2022-07-10T04:05:49;410.20;2073.60
70593;DHT22;58294;42.988;20.338;2022-07-10T04:08:15;410.20;2073.60
70593;DHT22;58294;42.988;20.338;2022-07-10T04:10:40;410.20;2099.20
70593;DHT22;58294;42.988;20.338;2022-07-10T04:13:06;410.30;2073.60
70593;DHT22;58294;42.988;20.338;2022-07-10T04:15:32;410.30;2073.60
70593;DHT22;58294;42.988;20.338;2022-07-10T04:17:58;410.30;2073.60
70593;DHT22;58294;42.988;20.338;2022-07-10T04:20:24;410.30;2099.20
70593;DHT22;58294;42.988;20.338;2022-07-10T04:22:50;410.30;2048.00
70593;DHT22;58294;42.988;20.338;2022-07-10T04:25:16;410.40;2048.00
70593;DHT22;58294;42.988;20.338;2022-07-10T04:27:42;410.40;2048.00
70593;DHT22;58294;42.988;20.338;2022-07-10T04:30:08;410.30;2048.00
70593;DHT22;58294;42.988;20.338;2022-07-10T04:32:34;410.30;2048.00
70593;DHT22;58294;42.988;20.338;2022-07-10T04:35:00;410.40;2048.00
70593;DHT22;58294;42.988;20.338;2022-07-10T04:37:28;410.40;2048.00
70593;DHT22;58294;42.988;20.338;2022-07-10T04:39:54;410.40;2048.00
70593;DHT22;58294;42.988;20.338;2022-07-10T04:42:20;410.40;2073.60
70593;DHT22;58294;42.988;20.338;2022-07-10T04:44:46;410.40;2048.00
70593;DHT22;58294;42.988;20.338;2022-07-10T04:47:12;410.40;2048.00
70593;DHT22;58294;42.988;20.338;2022-07-10T04:49:38;410.40;2048.00
70593;DHT22;58294;42.988;20.338;2022-07-10T04:52:04;410.50;2048.00
70593;DHT22;58294;42.988;20.338;2022-07-10T04:54:30;410.50;2022.40
70593;DHT22;58294;42.988;20.338;2022-07-10T04:56:56;410.40;2048.00
70593;DHT22;58294;42.988;20.338;2022-07-10T04:59:22;410.40;2048.00
70593;DHT22;58294;42.988;20.338;2022-07-10T05:01:47;410.40;2048.00
70593;DHT22;58294;42.988;20.338;2022-07-10T05:04:13;435.20;2048.00
70593;DHT22;58294;42.988;20.338;2022-07-10T05:06:39;435.20;2048.00
70593;DHT22;58294;42.988;20.338;2022-07-10T05:09:05;435.20;2048.00
70593;DHT22;58294;42.988;20.338;2022-07-10T05:11:32;435.20;2048.00
70593;DHT22;58294;42.988;20.338;2022-07-10T05:13:58;435.20;2048.00
70593;DHT22;58294;42.988;20.338;2022-07-10T05:16:24;435.20;2048.00
70593;DHT22;58294;42.988;20.338;2022-07-10T05:18:49;435.20;2048.00
70593;DHT22;58294;42.988;20.338;2022-07-10T05:21:15;435.30;2048.00
70593;DHT22;58294;42.988;20.338;2022-07-10T05:23:41;435.20;2048.00
70593;DHT22;58294;42.988;20.338;2022-07-10T05:26:07;435.30;2048.00
70593;DHT22;58294;42.988;20.338;2022-07-10T05:28:33;435.30;2048.00
70593;DHT22;58294;42.988;20.338;2022-07-10T05:30:59;435.30;2048.00
70593;DHT22;58294;42.988;20.338;2022-07-10T05:33:25;435.40;2048.00
70593;DHT22;58294;42.988;20.338;2022-07-10T05:35:54;435.40;2048.00
70593;DHT22;58294;42.988;20.338;2022-07-10T05:38:20;435.50;2048.00
70593;DHT22;58294;42.988;20.338;2022-07-10T05:40:46;435.60;2022.40
70593;DHT22;58294;42.988;20.338;2022-07-10T05:43:12;435.60;2022.40
70593;DHT22;58294;42.988;20.338;2022-07-10T05:45:38;435.60;2022.40
70593;DHT22;58294;42.988;20.338;2022-07-10T05:48:04;435.70;2022.40
70593;DHT22;58294;42.988;20.338;2022-07-10T05:50:30;435.70;1996.80
70593;DHT22;58294;42.988;20.338;2022-07-10T05:52:56;435.80;1996.80
70593;DHT22;58294;42.988;20.338;2022-07-10T05:55:22;435.90;1996.80
70593;DHT22;58294;42.988;20.338;2022-07-10T05:57:49;435.90;1996.80
70593;DHT22;58294;42.988;20.338;2022-07-10T06:00:16;435.90;1996.80
70593;DHT22;58294;42.988;20.338;2022-07-10T06:02:41;435.90;1996.80
70593;DHT22;58294;42.988;20.338;2022-07-10T06:05:08;436.00;1996.80
70593;DHT22;58294;42.988;20.338;2022-07-10T06:07:34;436.00;1996.80
70593;DHT22;58294;42.988;20.338;2022-07-10T06:10:00;436.10;1996.80
70593;DHT22;58294;42.988;20.338;2022-07-10T06:12:26;460.80;2048.00
70593;DHT22;58294;42.988;20.338;2022-07-10T06:14:52;460.80;2048.00
70593;DHT22;58294;42.988;20.338;2022-07-10T06:17:17;461.00;2201.60
70593;DHT22;58294;42.988;20.338;2022-07-10T06:19:43;461.00;2048.00
70593;DHT22;58294;42.988;20.338;2022-07-10T06:22:09;461.10;2022.40
70593;DHT22;58294;42.988;20.338;2022-07-10T06:24:54;461.10;2022.40
70593;DHT22;58294;42.988;20.338;2022-07-10T06:29:46;461.70;2022.40
70593;DHT22;58294;42.988;20.338;2022-07-10T06:32:11;486.40;2022.40
70593;DHT22;58294;42.988;20.338;2022-07-10T06:34:37;486.40;1996.80
70593;DHT22;58294;42.988;20.338;2022-07-10T06:37:03;486.50;1971.20
70593;DHT22;58294;42.988;20.338;2022-07-10T06:39:32;486.50;1945.60
70593;DHT22;58294;42.988;20.338;2022-07-10T06:42:05;486.60;1920.00
70593;DHT22;58294;42.988;20.338;2022-07-10T06:44:31;486.60;1920.00
70593;DHT22;58294;42.988;20.338;2022-07-10T06:46:57;486.70;1945.60
70593;DHT22;58294;42.988;20.338;2022-07-10T06:49:42;486.80;1920.00
70593;DHT22;58294;42.988;20.338;2022-07-10T06:52:09;486.90;1920.00
70593;DHT22;58294;42.988;20.338;2022-07-10T06:54:35;487.00;1920.00
70593;DHT22;58294;42.988;20.338;2022-07-10T06:57:01;487.10;1868.80
70593;DHT22;58294;42.988;20.338;2022-07-10T06:59:27;487.10;1868.80
70593;DHT22;58294;42.988;20.338;2022-07-10T07:01:54;487.10;1868.80
70593;DHT22;58294;42.988;20.338;2022-07-10T07:04:19;487.10;1868.80
70593;DHT22;58294;42.988;20.338;2022-07-10T07:06:45;487.10;1868.80
70593;DHT22;58294;42.988;20.338;2022-07-10T07:09:11;487.10;1868.80
70593;DHT22;58294;42.988;20.338;2022-07-10T07:11:37;487.20;1843.20
70593;DHT22;58294;42.988;20.338;2022-07-10T07:14:03;487.20;1843.20
70593;DHT22;58294;42.988;20.338;2022-07-10T07:16:29;512.10;1894.40
70593;DHT22;58294;42.988;20.338;2022-07-10T07:19:07;512.20;1868.80
70593;DHT22;58294;42.988;20.338;2022-07-10T07:21:33;512.00;1817.60
70593;DHT22;58294;42.988;20.338;2022-07-10T07:24:17;512.40;1817.60
70593;DHT22;58294;42.988;20.338;2022-07-10T07:26:46;512.20;1766.40
70593;DHT22;58294;42.988;20.338;2022-07-10T07:29:18;512.20;1664.00
70593;DHT22;58294;42.988;20.338;2022-07-10T07:31:44;512.20;1766.40
70593;DHT22;58294;42.988;20.338;2022-07-10T07:34:10;512.70;1792.00
70593;DHT22;58294;42.988;20.338;2022-07-10T07:36:36;512.90;1817.60
70593;DHT22;58294;42.988;20.338;2022-07-10T07:39:03;512.80;1766.40
70593;DHT22;58294;42.988;20.338;2022-07-10T07:41:29;537.60;1843.20
70593;DHT22;58294;42.988;20.338;2022-07-10T07:46:21;537.90;1740.80
70593;DHT22;58294;42.988;20.338;2022-07-10T07:48:47;538.10;1715.20
70593;DHT22;58294;42.988;20.338;2022-07-10T07:51:13;538.10;1689.60
70593;DHT22;58294;42.988;20.338;2022-07-10T07:56:05;538.30;1664.00
70593;DHT22;58294;42.988;20.338;2022-07-10T07:58:31;538.30;1689.60
70593;DHT22;58294;42.988;20.338;2022-07-10T08:00:57;538.40;1510.40
70593;DHT22;58294;42.988;20.338;2022-07-10T08:05:50;563.40;1689.60
70593;DHT22;58294;42.988;20.338;2022-07-10T08:08:16;563.60;1689.60
70593;DHT22;58294;42.988;20.338;2022-07-10T08:10:41;563.80;1689.60
70593;DHT22;58294;42.988;20.338;2022-07-10T08:13:07;563.80;1612.80
70593;DHT22;58294;42.988;20.338;2022-07-10T08:15:33;564.00;1638.40
70593;DHT22;58294;42.988;20.338;2022-07-10T08:20:29;588.90;1612.80
70593;DHT22;58294;42.988;20.338;2022-07-10T08:22:55;588.90;1561.60
70593;DHT22;58294;42.988;20.338;2022-07-10T08:25:21;588.80;1510.40
70593;DHT22;58294;42.988;20.338;2022-07-10T08:27:47;564.00;1433.60
70593;DHT22;58294;42.988;20.338;2022-07-10T08:30:13;563.90;1459.20
70593;DHT22;58294;42.988;20.338;2022-07-10T08:32:40;563.90;1459.20
70593;DHT22;58294;42.988;20.338;2022-07-10T08:35:07;564.00;1536.00
70593;DHT22;58294;42.988;20.338;2022-07-10T08:37:43;564.00;1433.60
70593;DHT22;58294;42.988;20.338;2022-07-10T08:40:12;564.10;1510.40
70593;DHT22;58294;42.988;20.338;2022-07-10T08:42:38;588.80;1484.80
70593;DHT22;58294;42.988;20.338;2022-07-10T08:45:05;588.80;1484.80
70593;DHT22;58294;42.988;20.338;2022-07-10T08:47:35;588.80;1510.40
70593;DHT22;58294;42.988;20.338;2022-07-10T08:50:02;588.80;1433.60
70593;DHT22;58294;42.988;20.338;2022-07-10T08:52:38;564.10;1459.20
70593;DHT22;58294;42.988;20.338;2022-07-10T08:55:07;564.10;1484.80
70593;DHT22;58294;42.988;20.338;2022-07-10T08:57:34;564.10;1484.80
70593;DHT22;58294;42.988;20.338;2022-07-10T09:00:01;588.80;1510.40
70593;DHT22;58294;42.988;20.338;2022-07-10T09:02:27;588.90;1510.40
70593;DHT22;58294;42.988;20.338;2022-07-10T09:04:53;589.10;1408.00
70593;DHT22;58294;42.988;20.338;2022-07-10T09:07:19;589.10;1459.20
70593;DHT22;58294;42.988;20.338;2022-07-10T09:09:56;589.30;1459.20
70593;DHT22;58294;42.988;20.338;2022-07-10T09:12:24;589.40;1280.00
70593;DHT22;58294;42.988;20.338;2022-07-10T09:14:51;589.50;1331.20
70593;DHT22;58294;42.988;20.338;2022-07-10T09:17:18;589.50;1305.60
70593;DHT22;58294;42.988;20.338;2022-07-10T09:19:44;589.60;1305.60
70593;DHT22;58294;42.988;20.338;2022-07-10T09:22:12;589.60;1331.20
70593;DHT22;58294;42.988;20.338;2022-07-10T09:27:06;589.70;1254.40
70593;DHT22;58294;42.988;20.338;2022-07-10T09:29:43;589.50;1228.80
70593;DHT22;58294;42.988;20.338;2022-07-10T09:32:09;589.50;1254.40
70593;DHT22;58294;42.988;20.338;2022-07-10T09:34:39;589.30;1254.40
70593;DHT22;58294;42.988;20.338;2022-07-10T09:37:22;589.30;1331.20
70593;DHT22;58294;42.988;20.338;2022-07-10T09:40:02;589.50;1382.40
70593;DHT22;58294;42.988;20.338;2022-07-10T09:42:35;589.60;1254.40
70593;DHT22;58294;42.988;20.338;2022-07-10T09:47:44;589.60;1126.40
70593;DHT22;58294;42.988;20.338;2022-07-10T09:52:58;614.40;1305.60
70593;DHT22;58294;42.988;20.338;2022-07-10T09:55:26;614.40;1280.00
70593;DHT22;58294;42.988;20.338;2022-07-10T09:57:59;614.60;1305.60
70593;DHT22;58294;42.988;20.338;2022-07-10T10:02:58;614.80;1177.60
70593;DHT22;58294;42.988;20.338;2022-07-10T10:05:42;614.80;1075.20
70593;DHT22;58294;42.988;20.338;2022-07-10T10:11:14;614.70;1203.20
70593;DHT22;58294;42.988;20.338;2022-07-10T10:13:43;614.60;1177.60
70593;DHT22;58294;42.988;20.338;2022-07-10T10:16:10;614.60;1075.20
70593;DHT22;58294;42.988;20.338;2022-07-10T10:18:37;614.50;1126.40
70593;DHT22;58294;42.988;20.338;2022-07-10T10:21:23;614.60;1152.00
70593;DHT22;58294;42.988;20.338;2022-07-10T10:23:49;614.70;1100.80
70593;DHT22;58294;42.988;20.338;2022-07-10T10:28:43;614.80;1152.00
70593;DHT22;58294;42.988;20.338;2022-07-10T10:31:10;614.80;1152.00
70593;DHT22;58294;42.988;20.338;2022-07-10T10:36:09;614.90;1126.40
70593;DHT22;58294;42.988;20.338;2022-07-10T10:41:37;615.10;1280.00
70593;DHT22;58294;42.988;20.338;2022-07-10T10:46:54;666.00;1459.20
70593;DHT22;58294;42.988;20.338;2022-07-10T10:52:14;716.80;1689.60
70593;DHT22;58294;42.988;20.338;2022-07-10T10:59:58;717.60;1152.00
70593;DHT22;58294;42.988;20.338;2022-07-10T11:07:57;768.20;1331.20
70593;DHT22;58294;42.988;20.338;2022-07-10T11:13:03;743.10;921.60
70593;DHT22;58294;42.988;20.338;2022-07-10T11:15:30;742.70;947.20
70593;DHT22;58294;42.988;20.338;2022-07-10T11:17:58;717.60;896.00
70593;DHT22;58294;42.988;20.338;2022-07-10T11:20:25;717.10;947.20
70593;DHT22;58294;42.988;20.338;2022-07-10T11:23:08;716.90;998.40
70593;DHT22;58294;42.988;20.338;2022-07-10T11:25:45;716.80;998.40
70593;DHT22;58294;42.988;20.338;2022-07-10T11:30:52;691.50;947.20
70593;DHT22;58294;42.988;20.338;2022-07-10T11:33:19;691.20;947.20
70593;DHT22;58294;42.988;20.338;2022-07-10T11:35:50;666.40;972.80
70593;DHT22;58294;42.988;20.338;2022-07-10T11:38:21;666.20;972.80
70593;DHT22;58294;42.988;20.338;2022-07-10T11:40:47;666.00;998.40
70593;DHT22;58294;42.988;20.338;2022-07-10T11:43:13;666.00;998.40
70593;DHT22;58294;42.988;20.338;2022-07-10T11:45:40;665.90;998.40
70593;DHT22;58294;42.988;20.338;2022-07-10T11:48:06;665.80;972.80
70593;DHT22;58294;42.988;20.338;2022-07-10T11:50:38;640.90;947.20
70593;DHT22;58294;42.988;20.338;2022-07-10T11:53:05;640.60;947.20
70593;DHT22;58294;42.988;20.338;2022-07-10T11:55:31;640.50;972.80
70593;DHT22;58294;42.988;20.338;2022-07-10T11:58:13;640.20;972.80
70593;DHT22;58294;42.988;20.338;2022-07-10T12:00:38;640.00;998.40
70593;DHT22;58294;42.988;20.338;2022-07-10T12:03:19;615.20;972.80
70593;DHT22;58294;42.988;20.338;2022-07-10T12:05:46;615.20;1075.20
70593;DHT22;58294;42.988;20.338;2022-07-10T12:08:12;640.20;1049.60
70593;DHT22;58294;42.988;20.338;2022-07-10T12:10:41;640.60;1049.60
70593;DHT22;58294;42.988;20.338;2022-07-10T12:13:13;640.60;1024.00
70593;DHT22;58294;42.988;20.338;2022-07-10T12:15:41;640.60;998.40
70593;DHT22;58294;42.988;20.338;2022-07-10T12:18:14;640.30;947.20
70593;DHT22;58294;42.988;20.338;2022-07-10T12:20:41;640.00;972.80
70593;DHT22;58294;42.988;20.338;2022-07-10T12:23:11;615.20;998.40
70593;DHT22;58294;42.988;20.338;2022-07-10T12:25:41;615.00;998.40
70593;DHT22;58294;42.988;20.338;2022-07-10T12:28:08;614.80;998.40
70593;DHT22;58294;42.988;20.338;2022-07-10T12:30:38;614.60;998.40
70593;DHT22;58294;42.988;20.338;2022-07-10T12:33:12;614.50;1024.00
70593;DHT22;58294;42.988;20.338;2022-07-10T12:35:57;614.40;1024.00
70593;DHT22;58294;42.988;20.338;2022-07-10T12:38:30;589.70;1049.60
70593;DHT22;58294;42.988;20.338;2022-07-10T12:41:13;589.70;1075.20
70593;DHT22;58294;42.988;20.338;2022-07-10T12:43:39;589.70;1049.60
70593;DHT22;58294;42.988;20.338;2022-07-10T12:46:12;589.70;1049.60
70593;DHT22;58294;42.988;20.338;2022-07-10T12:48:42;589.70;1075.20
70593;DHT22;58294;42.988;20.338;2022-07-10T12:51:30;589.70;1049.60
70593;DHT22;58294;42.988;20.338;2022-07-10T12:53:56;589.70;1075.20
70593;DHT22;58294;42.988;20.338;2022-07-10T12:56:36;589.70;1049.60
70593;DHT22;58294;42.988;20.338;2022-07-10T12:59:21;589.70;1075.20
70593;DHT22;58294;42.988;20.338;2022-07-10T13:01:47;614.40;1075.20
70593;DHT22;58294;42.988;20.338;2022-07-10T13:04:13;614.40;1049.60
70593;DHT22;58294;42.988;20.338;2022-07-10T13:06:39;614.40;1049.60
70593;DHT22;58294;42.988;20.338;2022-07-10T13:09:19;589.70;1049.60
70593;DHT22;58294;42.988;20.338;2022-07-10T13:11:46;589.60;1049.60
70593;DHT22;58294;42.988;20.338;2022-07-10T13:14:12;589.50;1075.20
70593;DHT22;58294;42.988;20.338;2022-07-10T13:16:37;589.40;1075.20
70593;DHT22;58294;42.988;20.338;2022-07-10T13:19:03;589.30;1075.20
70593;DHT22;58294;42.988;20.338;2022-07-10T13:21:29;589.30;1075.20
70593;DHT22;58294;42.988;20.338;2022-07-10T13:23:55;589.20;1075.20
70593;DHT22;58294;42.988;20.338;2022-07-10T13:26:21;589.20;1100.80
70593;DHT22;58294;42.988;20.338;2022-07-10T13:28:46;589.10;1075.20
70593;DHT22;58294;42.988;20.338;2022-07-10T13:31:12;589.10;1100.80
70593;DHT22;58294;42.988;20.338;2022-07-10T13:33:38;589.10;1100.80
70593;DHT22;58294;42.988;20.338;2022-07-10T13:36:04;589.00;1100.80
70593;DHT22;58294;42.988;20.338;2022-07-10T13:38:30;588.90;1126.40
70593;DHT22;58294;42.988;20.338;2022-07-10T13:40:57;588.90;1126.40
70593;DHT22;58294;42.988;20.338;2022-07-10T13:43:24;588.90;1126.40
70593;DHT22;58294;42.988;20.338;2022-07-10T13:46:00;588.90;1100.80
70593;DHT22;58294;42.988;20.338;2022-07-10T13:48:26;588.80;1126.40
70593;DHT22;58294;42.988;20.338;2022-07-10T13:50:52;588.80;1100.80
70593;DHT22;58294;42.988;20.338;2022-07-10T13:53:18;564.10;1100.80
70593;DHT22;58294;42.988;20.338;2022-07-10T13:55:45;564.10;1126.40
70593;DHT22;58294;42.988;20.338;2022-07-10T13:58:12;588.80;1152.00
70593;DHT22;58294;42.988;20.338;2022-07-10T14:00:38;588.80;1152.00
70593;DHT22;58294;42.988;20.338;2022-07-10T14:03:05;588.90;1177.60
70593;DHT22;58294;42.988;20.338;2022-07-10T14:05:31;589.00;1203.20
70593;DHT22;58294;42.988;20.338;2022-07-10T14:07:58;589.10;1177.60
70593;DHT22;58294;42.988;20.338;2022-07-10T14:10:24;589.20;1177.60
70593;DHT22;58294;42.988;20.338;2022-07-10T14:12:52;589.30;1177.60
70593;DHT22;58294;42.988;20.338;2022-07-10T14:15:18;589.30;1152.00
70593;DHT22;58294;42.988;20.338;2022-07-10T14:17:44;589.30;1152.00
70593;DHT22;58294;42.988;20.338;2022-07-10T14:20:11;589.30;1126.40
70593;DHT22;58294;42.988;20.338;2022-07-10T14:22:37;589.30;1126.40
70593;DHT22;58294;42.988;20.338;2022-07-10T14:25:04;589.20;1126.40
70593;DHT22;58294;42.988;20.338;2022-07-10T14:27:30;589.10;1126.40
70593;DHT22;58294;42.988;20.338;2022-07-10T14:29:58;589.10;1126.40
70593;DHT22;58294;42.988;20.338;2022-07-10T14:32:24;589.10;1126.40
70593;DHT22;58294;42.988;20.338;2022-07-10T14:34:50;589.20;1126.40
70593;DHT22;58294;42.988;20.338;2022-07-10T14:37:16;589.20;1126.40
70593;DHT22;58294;42.988;20.338;2022-07-10T14:39:42;589.20;1126.40
70593;DHT22;58294;42.988;20.338;2022-07-10T14:42:08;589.10;1126.40
70593;DHT22;58294;42.988;20.338;2022-07-10T14:44:38;589.10;1152.00
70593;DHT22;58294;42.988;20.338;2022-07-10T14:47:04;589.10;1152.00
70593;DHT22;58294;42.988;20.338;2022-07-10T14:49:29;589.10;1152.00
70593;DHT22;58294;42.988;20.338;2022-07-10T14:51:55;589.20;1177.60
70593;DHT22;58294;42.988;20.338;2022-07-10T14:54:21;589.20;1152.00
70593;DHT22;58294;42.988;20.338;2022-07-10T14:56:47;589.20;1152.00
70593;DHT22;58294;42.988;20.338;2022-07-10T14:59:13;589.20;1152.00
70593;DHT22;58294;42.988;20.338;2022-07-10T15:01:39;589.20;1152.00
70593;DHT22;58294;42.988;20.338;2022-07-10T15:04:05;589.20;1152.00
70593;DHT22;58294;42.988;20.338;2022-07-10T15:06:31;589.20;1126.40
70593;DHT22;58294;42.988;20.338;2022-07-10T15:08:57;589.10;1126.40
70593;DHT22;58294;42.988;20.338;2022-07-10T15:11:23;589.10;1126.40
70593;DHT22;58294;42.988;20.338;2022-07-10T15:13:51;589.10;1152.00
70593;DHT22;58294;42.988;20.338;2022-07-10T15:16:28;589.20;1177.60
70593;DHT22;58294;42.988;20.338;2022-07-10T15:18:54;589.30;1177.60
70593;DHT22;58294;42.988;20.338;2022-07-10T15:21:20;589.30;1152.00
70593;DHT22;58294;42.988;20.338;2022-07-10T15:23:46;589.30;1152.00
70593;DHT22;58294;42.988;20.338;2022-07-10T15:26:13;589.30;1152.00
70593;DHT22;58294;42.988;20.338;2022-07-10T15:28:38;589.20;1152.00
70593;DHT22;58294;42.988;20.338;2022-07-10T15:31:04;589.10;1152.00
70593;DHT22;58294;42.988;20.338;2022-07-10T15:33:32;589.00;1152.00
70593;DHT22;58294;42.988;20.338;2022-07-10T15:35:58;588.90;1152.00
70593;DHT22;58294;42.988;20.338;2022-07-10T15:38:24;588.80;1152.00
70593;DHT22;58294;42.988;20.338;2022-07-10T15:40:50;564.10;1152.00
70593;DHT22;58294;42.988;20.338;2022-07-10T15:43:16;564.00;1177.60
70593;DHT22;58294;42.988;20.338;2022-07-10T15:45:42;564.00;1177.60
70593;DHT22;58294;42.988;20.338;2022-07-10T15:48:08;564.00;1177.60
70593;DHT22;58294;42.988;20.338;2022-07-10T15:50:40;564.00;1177.60
70593;DHT22;58294;42.988;20.338;2022-07-10T15:53:06;564.00;1177.60
70593;DHT22;58294;42.988;20.338;2022-07-10T15:55:32;564.00;1203.20
70593;DHT22;58294;42.988;20.338;2022-07-10T15:57:58;564.10;1203.20
70593;DHT22;58294;42.988;20.338;2022-07-10T16:00:23;564.10;1203.20
70593;DHT22;58294;42.988;20.338;2022-07-10T16:02:50;564.10;1203.20